createdAt,value
2022-08-22T00:02:06.109Z,19.85
2022-08-22T00:03:04.654Z,20.30
2022-08-22T00:03:06.480Z,19.48
2022-08-22T00:07:03.645Z,19.92
2022-08-22T00:11:18.823Z,19.96
2022-08-22T00:15:52.721Z,19.97
2022-08-22T00:20:28.258Z,19.98
2022-08-22T00:24:54.800Z,20.00
2022-08-22T00:29:15.199Z,20.07
2022-08-22T00:33:32.493Z,20.12
2022-08-22T00:38:11.389Z,20.16
2022-08-22T00:42:46.115Z,20.17
2022-08-22T00:46:58.159Z,20.18
2022-08-22T00:51:23.798Z,20.19
2022-08-22T00:56:11.452Z,20.24
2022-08-22T01:00:28.841Z,20.23
2022-08-22T01:04:47.523Z,20.15
2022-08-22T01:09:09.040Z,20.10
2022-08-22T01:13:33.079Z,20.08
2022-08-22T01:18:00.119Z,20.08
2022-08-22T01:22:38.334Z,20.09
2022-08-22T01:27:12.552Z,20.07
2022-08-22T01:31:40.129Z,20.02
2022-08-22T01:36:08.891Z,19.96
2022-08-22T01:40:53.293Z,19.86
2022-08-22T01:45:33.404Z,19.84
2022-08-22T01:50:02.411Z,19.92
2022-08-22T01:54:50.619Z,19.94
2022-08-22T01:59:14.661Z,19.92
2022-08-22T02:03:32.419Z,19.92
2022-08-22T02:08:01.439Z,19.92
2022-08-22T02:12:22.271Z,19.94
2022-08-22T02:16:34.934Z,19.92
2022-08-22T02:21:17.151Z,19.86
2022-08-22T02:25:53.064Z,19.77
2022-08-22T02:30:08.087Z,19.66
2022-08-22T02:34:30.878Z,19.56
2022-08-22T02:39:02.635Z,19.50
2022-08-22T02:43:30.066Z,19.44
2022-08-22T02:47:41.994Z,19.40
2022-08-22T02:51:50.525Z,19.33
2022-08-22T02:56:14.470Z,19.26
2022-08-22T03:00:30.921Z,19.20
2022-08-22T03:04:40.393Z,19.20
2022-08-22T03:09:09.986Z,19.20
2022-08-22T03:13:37.426Z,19.21
2022-08-22T03:18:25.537Z,19.19
2022-08-22T03:22:43.649Z,19.16
2022-08-22T03:27:14.827Z,19.13
2022-08-22T03:31:36.753Z,19.12
2022-08-22T03:35:50.270Z,19.12
2022-08-22T03:40:17.331Z,19.15
2022-08-22T03:44:35.890Z,19.18
2022-08-22T03:49:15.294Z,19.24
2022-08-22T03:53:29.390Z,19.28
2022-08-22T03:57:59.637Z,19.28
2022-08-22T04:02:35.825Z,19.31
2022-08-22T04:07:01.785Z,19.30
2022-08-22T04:11:28.509Z,19.35
2022-08-22T04:15:34.220Z,19.38
2022-08-22T04:19:42.365Z,19.43
2022-08-22T04:23:44.418Z,19.46
2022-08-22T04:28:10.600Z,19.52
2022-08-22T04:32:40.197Z,19.63
2022-08-22T04:37:29.301Z,19.71
2022-08-22T04:41:50.689Z,19.71
2022-08-22T04:46:23.646Z,19.69
2022-08-22T04:50:52.660Z,19.73
2022-08-22T04:55:45.359Z,19.78
2022-08-22T04:59:49.661Z,19.84
2022-08-22T05:04:15.910Z,19.89
2022-08-22T05:08:57.393Z,19.92
2022-08-22T05:13:45.424Z,19.92
2022-08-22T05:18:31.811Z,19.95
2022-08-22T05:23:22.470Z,19.98
2022-08-22T05:27:33.097Z,20.01
2022-08-22T05:31:59.239Z,20.04
2022-08-22T05:36:10.564Z,20.13
2022-08-22T05:40:31.007Z,20.18
2022-08-22T05:44:47.258Z,20.18
2022-08-22T05:49:09.026Z,20.19
2022-08-22T05:54:15.256Z,20.17
2022-08-22T05:58:39.755Z,20.20
2022-08-22T06:03:01.098Z,20.25
2022-08-22T06:07:43.949Z,20.31
2022-08-22T06:12:22.791Z,20.43
2022-08-22T06:17:10.129Z,20.49
2022-08-22T06:21:39.434Z,20.57
2022-08-22T06:25:50.662Z,20.58
2022-08-22T06:30:17.501Z,20.56
2022-08-22T06:34:37.981Z,20.52
2022-08-22T06:38:58.911Z,20.57
2022-08-22T06:43:15.138Z,20.63
2022-08-22T06:47:24.074Z,20.64
2022-08-22T06:51:48.620Z,20.65
2022-08-22T06:55:55.420Z,20.70
2022-08-22T07:00:05.640Z,20.72
2022-08-22T07:04:10.354Z,20.76
2022-08-22T07:08:42.206Z,20.82
2022-08-22T07:12:48.990Z,20.87
2022-08-22T07:17:12.045Z,20.96
2022-08-22T07:22:18.036Z,21.10
2022-08-22T07:27:28.982Z,21.22
2022-08-22T07:31:54.604Z,21.31
2022-08-22T07:37:09.613Z,21.41
2022-08-22T07:41:59.410Z,21.45
2022-08-22T07:46:42.774Z,21.52
2022-08-22T07:51:14.012Z,21.62
2022-08-22T07:55:49.663Z,21.70
2022-08-22T08:00:11.770Z,21.85
2022-08-22T08:04:45.654Z,21.94
2022-08-22T08:09:23.673Z,21.98
2022-08-22T08:13:43.556Z,22.04
2022-08-22T08:18:00.977Z,22.11
2022-08-22T08:22:43.222Z,22.24
2022-08-22T08:27:28.014Z,22.31
2022-08-22T08:31:56.753Z,22.40
2022-08-22T08:36:52.900Z,22.52
2022-08-22T08:47:12.240Z,22.80
2022-08-22T08:51:50.681Z,22.88
2022-08-22T08:56:42.787Z,22.97
2022-08-22T09:01:31.387Z,23.12
2022-08-22T09:06:32.899Z,23.26
2022-08-22T09:11:28.333Z,23.37
2022-08-22T09:16:39.133Z,23.52
2022-08-22T09:21:38.776Z,23.71
2022-08-22T09:26:15.923Z,23.85
2022-08-22T09:35:28.116Z,24.06
2022-08-22T09:55:59.394Z,24.82
2022-08-22T10:06:53.806Z,25.33
2022-08-22T10:45:24.025Z,26.68
2022-08-22T10:56:12.465Z,26.59
